sensor_id;sensor_type;location;lat;lon;timestamp;pressure;altitude;pressure_sealevel;temperature;humidity
21760;BME280;11041;50.854;20.580;2023-02-22T00:00:59;98571.50;;;4.44;77.00
21760;BME280;11041;50.854;20.580;2023-02-22T00:03:32;98588.63;;;4.55;77.47
21760;BME280;11041;50.854;20.580;2023-02-22T00:06:05;98567.16;;;4.48;77.17
21760;BME280;11041;50.854;20.580;2023-02-22T00:08:35;98584.53;;;4.52;77.30
21760;BME280;11041;50.854;20.580;2023-02-22T00:11:06;98569.09;;;4.37;76.94
21760;BME280;11041;50.854;20.580;2023-02-22T00:13:37;98571.50;;;4.44;77.63
21760;BME280;11041;50.854;20.580;2023-02-22T00:16:05;98566.66;;;4.41;77.95
21760;BME280;11041;50.854;20.580;2023-02-22T00:18:32;98588.06;;;4.58;77.33
21760;BME280;11041;50.854;20.580;2023-02-22T00:21:00;98575.88;;;4.40;76.37
21760;BME280;11041;50.854;20.580;2023-02-22T00:23:29;98575.91;;;4.35;77.23
21760;BME280;11041;50.854;20.580;2023-02-22T00:25:58;98591.69;;;4.33;77.32
21760;BME280;11041;50.854;20.580;2023-02-22T00:28:26;98567.53;;;4.21;77.98
21760;BME280;11041;50.854;20.580;2023-02-22T00:30:53;98585.44;;;4.32;78.46
21760;BME280;11041;50.854;20.580;2023-02-22T00:33:20;98605.28;;;4.38;77.85
21760;BME280;11041;50.854;20.580;2023-02-22T00:35:46;98591.72;;;4.27;77.80
21760;BME280;11041;50.854;20.580;2023-02-22T00:38:17;98611.00;;;4.36;77.58
21760;BME280;11041;50.854;20.580;2023-02-22T00:40:44;98587.38;;;4.26;77.87
21760;BME280;11041;50.854;20.580;2023-02-22T00:43:11;98614.81;;;4.40;77.75
21760;BME280;11041;50.854;20.580;2023-02-22T00:45:38;98592.00;;;4.21;77.98
21760;BME280;11041;50.854;20.580;2023-02-22T00:48:05;98610.72;;;4.38;77.83
21760;BME280;11041;50.854;20.580;2023-02-22T00:50:34;98612.09;;;4.30;77.67
21760;BME280;11041;50.854;20.580;2023-02-22T00:53:03;98600.38;;;4.35;77.56
21760;BME280;11041;50.854;20.580;2023-02-22T00:55:34;98599.91;;;4.22;77.55
21760;BME280;11041;50.854;20.580;2023-02-22T00:58:03;98612.91;;;4.36;78.09
21760;BME280;11041;50.854;20.580;2023-02-22T01:00:35;98625.41;;;4.37;77.60
21760;BME280;11041;50.854;20.580;2023-02-22T01:03:05;98599.34;;;4.20;78.06
21760;BME280;11041;50.854;20.580;2023-02-22T01:05:32;98609.94;;;4.27;78.26
21760;BME280;11041;50.854;20.580;2023-02-22T01:08:01;98609.94;;;4.27;77.92
21760;BME280;11041;50.854;20.580;2023-02-22T01:10:30;98599.66;;;4.19;77.55
21760;BME280;11041;50.854;20.580;2023-02-22T01:12:58;98603.44;;;4.18;78.55
21760;BME280;11041;50.854;20.580;2023-02-22T01:15:28;98628.97;;;4.32;78.07
21760;BME280;11041;50.854;20.580;2023-02-22T01:17:57;98614.81;;;4.30;77.56
21760;BME280;11041;50.854;20.580;2023-02-22T01:20:27;98615.66;;;4.31;77.97
21760;BME280;11041;50.854;20.580;2023-02-22T01:22:59;98627.88;;;4.28;77.94
21760;BME280;11041;50.854;20.580;2023-02-22T01:25:30;98629.78;;;4.27;78.21
21760;BME280;11041;50.854;20.580;2023-02-22T01:27:59;98614.34;;;4.13;77.85
21760;BME280;11041;50.854;20.580;2023-02-22T01:30:32;98602.09;;;4.10;77.60
21760;BME280;11041;50.854;20.580;2023-02-22T01:33:01;98617.59;;;4.15;78.27
21760;BME280;11041;50.854;20.580;2023-02-22T01:35:33;98612.19;;;4.10;77.96
21760;BME280;11041;50.854;20.580;2023-02-22T01:38:00;98604.03;;;4.04;78.04
21760;BME280;11041;50.854;20.580;2023-02-22T01:40:40;98623.31;;;4.08;77.97
21760;BME280;11041;50.854;20.580;2023-02-22T01:43:28;98617.66;;;3.99;78.39
21760;BME280;11041;50.854;20.580;2023-02-22T01:46:04;98609.22;;;3.96;78.41
21760;BME280;11041;50.854;20.580;2023-02-22T01:49:00;98638.56;;;4.09;78.94
21760;BME280;11041;50.854;20.580;2023-02-22T01:51:36;98642.63;;;4.01;79.11
21760;BME280;11041;50.854;20.580;2023-02-22T01:54:24;98645.88;;;4.09;79.07
21760;BME280;11041;50.854;20.580;2023-02-22T01:57:33;98641.28;;;4.09;78.25
21760;BME280;11041;50.854;20.580;2023-02-22T02:00:12;98641.56;;;4.02;78.57
21760;BME280;11041;50.854;20.580;2023-02-22T02:02:51;98622.28;;;3.83;79.21
21760;BME280;11041;50.854;20.580;2023-02-22T02:05:19;98639.13;;;3.91;79.56
21760;BME280;11041;50.854;20.580;2023-02-22T02:07:46;98644.31;;;3.92;79.88
21760;BME280;11041;50.854;20.580;2023-02-22T02:10:15;98633.41;;;3.87;79.73
21760;BME280;11041;50.854;20.580;2023-02-22T02:12:46;98633.97;;;3.84;79.85
21760;BME280;11041;50.854;20.580;2023-02-22T02:15:32;98630.97;;;3.86;79.40
21760;BME280;11041;50.854;20.580;2023-02-22T02:18:06;98652.69;;;4.06;79.46
21760;BME280;11041;50.854;20.580;2023-02-22T02:27:15;98653.81;;;3.95;79.37
21760;BME280;11041;50.854;20.580;2023-02-22T02:35:30;98645.13;;;3.88;80.09
21760;BME280;11041;50.854;20.580;2023-02-22T02:38:15;98629.63;;;3.83;79.76
21760;BME280;11041;50.854;20.580;2023-02-22T02:41:41;98633.16;;;3.83;80.20
21760;BME280;11041;50.854;20.580;2023-02-22T02:44:15;98614.69;;;3.70;80.71
21760;BME280;11041;50.854;20.580;2023-02-22T02:49:48;98660.31;;;3.94;80.07
21760;BME280;11041;50.854;20.580;2023-02-22T02:52:20;98639.94;;;3.91;79.35
21760;BME280;11041;50.854;20.580;2023-02-22T02:54:50;98637.78;;;3.83;79.44
21760;BME280;11041;50.854;20.580;2023-02-22T02:57:17;98653.25;;;3.77;79.95
21760;BME280;11041;50.854;20.580;2023-02-22T02:59:43;98637.25;;;3.66;80.17
21760;BME280;11041;50.854;20.580;2023-02-22T03:02:43;98638.88;;;3.72;80.17
21760;BME280;11041;50.854;20.580;2023-02-22T03:08:33;98662.25;;;3.78;80.63
21760;BME280;11041;50.854;20.580;2023-02-22T03:11:18;98671.75;;;3.80;80.32
21760;BME280;11041;50.854;20.580;2023-02-22T03:16:51;98673.66;;;3.90;79.61
21760;BME280;11041;50.854;20.580;2023-02-22T03:19:50;98678.56;;;3.88;80.52
21760;BME280;11041;50.854;20.580;2023-02-22T03:22:26;98649.50;;;3.68;79.94
21760;BME280;11041;50.854;20.580;2023-02-22T03:25:34;98675.00;;;3.77;80.18
21760;BME280;11041;50.854;20.580;2023-02-22T03:28:09;98672.59;;;3.66;80.84
21760;BME280;11041;50.854;20.580;2023-02-22T03:31:04;98650.56;;;3.52;80.55
21760;BME280;11041;50.854;20.580;2023-02-22T03:33:57;98669.88;;;3.71;81.02
21760;BME280;11041;50.854;20.580;2023-02-22T03:36:42;98659.53;;;3.68;80.43
21760;BME280;11041;50.854;20.580;2023-02-22T03:39:15;98648.94;;;3.71;80.54
21760;BME280;11041;50.854;20.580;2023-02-22T03:41:48;98673.38;;;3.87;80.30
21760;BME280;11041;50.854;20.580;2023-02-22T03:44:24;98675.56;;;3.90;80.13
21760;BME280;11041;50.854;20.580;2023-02-22T03:46:54;98665.50;;;3.80;80.55
21760;BME280;11041;50.854;20.580;2023-02-22T03:49:35;98641.06;;;3.65;80.14
21760;BME280;11041;50.854;20.580;2023-02-22T03:52:04;98671.47;;;3.77;80.78
21760;BME280;11041;50.854;20.580;2023-02-22T03:54:33;98665.25;;;3.76;80.57
21760;BME280;11041;50.854;20.580;2023-02-22T03:59:38;98664.13;;;3.77;80.34
21760;BME280;11041;50.854;20.580;2023-02-22T04:02:05;98649.19;;;3.70;80.69
21760;BME280;11041;50.854;20.580;2023-02-22T04:04:31;98659.53;;;3.78;80.33
21760;BME280;11041;50.854;20.580;2023-02-22T04:07:01;98676.91;;;3.87;80.04
21760;BME280;11041;50.854;20.580;2023-02-22T04:09:45;98680.44;;;3.93;80.64
21760;BME280;11041;50.854;20.580;2023-02-22T04:12:12;98681.00;;;3.90;80.22
21760;BME280;11041;50.854;20.580;2023-02-22T04:14:38;98677.75;;;3.88;79.76
21760;BME280;11041;50.854;20.580;2023-02-22T04:17:05;98663.59;;;3.70;79.80
21760;BME280;11041;50.854;20.580;2023-02-22T04:19:31;98661.97;;;3.64;80.69
21760;BME280;11041;50.854;20.580;2023-02-22T04:21:58;98678.53;;;3.62;80.89
21760;BME280;11041;50.854;20.580;2023-02-22T04:24:24;98663.34;;;3.61;80.96
21760;BME280;11041;50.854;20.580;2023-02-22T04:26:51;98682.06;;;3.63;80.76
21760;BME280;11041;50.854;20.580;2023-02-22T04:29:18;98685.34;;;3.65;80.40
21760;BME280;11041;50.854;20.580;2023-02-22T04:31:45;98668.78;;;3.51;80.83
21760;BME280;11041;50.854;20.580;2023-02-22T04:34:11;98683.97;;;3.57;81.07
21760;BME280;11041;50.854;20.580;2023-02-22T04:36:38;98687.50;;;3.58;80.63
21760;BME280;11041;50.854;20.580;2023-02-22T04:39:07;98693.22;;;3.61;80.99
21760;BME280;11041;50.854;20.580;2023-02-22T04:41:33;98681.81;;;3.54;80.64
21760;BME280;11041;50.854;20.580;2023-02-22T04:44:00;98688.88;;;3.50;81.21
21760;BME280;11041;50.854;20.580;2023-02-22T04:46:27;98698.94;;;3.50;80.79
21760;BME280;11041;50.854;20.580;2023-02-22T04:48:54;98697.00;;;3.45;81.08
21760;BME280;11041;50.854;20.580;2023-02-22T04:51:20;98689.13;;;3.33;81.20
21760;BME280;11041;50.854;20.580;2023-02-22T04:53:47;98697.81;;;3.35;81.92
21760;BME280;11041;50.854;20.580;2023-02-22T04:56:17;98680.16;;;3.23;81.94
21760;BME280;11041;50.854;20.580;2023-02-22T04:58:43;98676.34;;;3.18;81.44
21760;BME280;11041;50.854;20.580;2023-02-22T05:01:10;98704.06;;;3.36;81.77
21760;BME280;11041;50.854;20.580;2023-02-22T05:03:37;98701.34;;;3.31;82.41
21760;BME280;11041;50.854;20.580;2023-02-22T05:06:04;98689.66;;;3.25;82.21
21760;BME280;11041;50.854;20.580;2023-02-22T05:08:31;98706.78;;;3.36;81.94
21760;BME280;11041;50.854;20.580;2023-02-22T05:10:57;98699.72;;;3.30;82.26
21760;BME280;11041;50.854;20.580;2023-02-22T05:13:23;98692.63;;;3.24;82.50
21760;BME280;11041;50.854;20.580;2023-02-22T05:15:50;98703.50;;;3.29;82.51
21760;BME280;11041;50.854;20.580;2023-02-22T05:18:17;98703.50;;;3.24;82.22
21760;BME280;11041;50.854;20.580;2023-02-22T05:20:43;98688.00;;;3.14;82.51
21760;BME280;11041;50.854;20.580;2023-02-22T05:23:10;98708.09;;;3.18;82.97
21760;BME280;11041;50.854;20.580;2023-02-22T05:25:36;98698.31;;;3.12;82.95
21760;BME280;11041;50.854;20.580;2023-02-22T05:28:10;98721.38;;;3.14;83.17
21760;BME280;11041;50.854;20.580;2023-02-22T05:30:38;98705.63;;;3.01;83.57
21760;BME280;11041;50.854;20.580;2023-02-22T05:33:05;98726.81;;;3.14;83.14
21760;BME280;11041;50.854;20.580;2023-02-22T05:35:32;98714.28;;;2.98;83.37
21760;BME280;11041;50.854;20.580;2023-02-22T05:37:59;98720.28;;;3.05;83.86
21760;BME280;11041;50.854;20.580;2023-02-22T05:40:30;98724.34;;;3.03;83.65
21760;BME280;11041;50.854;20.580;2023-02-22T05:42:57;98712.63;;;2.92;84.45
21760;BME280;11041;50.854;20.580;2023-02-22T05:45:26;98720.25;;;3.00;83.38
21760;BME280;11041;50.854;20.580;2023-02-22T05:47:54;98738.19;;;3.01;84.21
21760;BME280;11041;50.854;20.580;2023-02-22T05:50:21;98730.56;;;2.98;83.95
21760;BME280;11041;50.854;20.580;2023-02-22T05:52:48;98712.63;;;2.87;84.45
21760;BME280;11041;50.854;20.580;2023-02-22T05:55:17;98730.50;;;2.83;84.82
21760;BME280;11041;50.854;20.580;2023-02-22T05:57:44;98746.56;;;2.89;85.15
21760;BME280;11041;50.854;20.580;2023-02-22T06:00:27;98744.66;;;2.90;84.48
21760;BME280;11041;50.854;20.580;2023-02-22T06:02:57;98759.06;;;3.01;84.83
21760;BME280;11041;50.854;20.580;2023-02-22T06:05:25;98765.34;;;3.06;84.73
21760;BME280;11041;50.854;20.580;2023-02-22T06:07:56;98734.59;;;2.90;84.49
21760;BME280;11041;50.854;20.580;2023-02-22T06:10:23;98779.47;;;3.03;85.22
21760;BME280;11041;50.854;20.580;2023-02-22T06:12:51;98753.91;;;2.94;84.75
21760;BME280;11041;50.854;20.580;2023-02-22T06:15:20;98759.03;;;2.90;84.93
21760;BME280;11041;50.854;20.580;2023-02-22T06:17:47;98769.91;;;2.95;84.84
21760;BME280;11041;50.854;20.580;2023-02-22T06:20:18;98759.00;;;2.85;85.33
21760;BME280;11041;50.854;20.580;2023-02-22T06:22:50;98765.78;;;2.83;85.61
21760;BME280;11041;50.854;20.580;2023-02-22T06:25:21;98790.56;;;2.96;85.71
21760;BME280;11041;50.854;20.580;2023-02-22T06:27:49;98788.66;;;2.97;86.13
21760;BME280;11041;50.854;20.580;2023-02-22T06:30:20;98787.84;;;2.96;86.23
21760;BME280;11041;50.854;20.580;2023-02-22T06:32:47;98796.25;;;3.00;86.03
21760;BME280;11041;50.854;20.580;2023-02-22T06:35:15;98804.41;;;3.00;85.51
21760;BME280;11041;50.854;20.580;2023-02-22T06:37:41;98791.88;;;2.89;85.96
21760;BME280;11041;50.854;20.580;2023-02-22T06:40:09;98781.03;;;2.89;86.93
21760;BME280;11041;50.854;20.580;2023-02-22T06:42:38;98799.47;;;2.87;86.43
21760;BME280;11041;50.854;20.580;2023-02-22T06:45:06;98808.69;;;2.91;86.03
21760;BME280;11041;50.854;20.580;2023-02-22T06:47:36;98815.78;;;2.97;86.02
21760;BME280;11041;50.854;20.580;2023-02-22T06:50:02;98819.03;;;2.94;86.52
21760;BME280;11041;50.854;20.580;2023-02-22T06:52:29;98792.09;;;2.77;86.65
21760;BME280;11041;50.854;20.580;2023-02-22T06:54:55;98787.44;;;2.72;86.81
21760;BME280;11041;50.854;20.580;2023-02-22T06:57:21;98798.31;;;2.72;87.28
21760;BME280;11041;50.854;20.580;2023-02-22T06:59:48;98822.00;;;2.92;86.95
21760;BME280;11041;50.854;20.580;2023-02-22T07:02:14;98792.66;;;2.79;86.44
21760;BME280;11041;50.854;20.580;2023-02-22T07:04:41;98809.47;;;2.81;87.08
21760;BME280;11041;50.854;20.580;2023-02-22T07:07:07;98816.59;;;2.92;86.33
21760;BME280;11041;50.854;20.580;2023-02-22T07:09:34;98829.66;;;3.01;86.47
21760;BME280;11041;50.854;20.580;2023-02-22T07:12:00;98821.22;;;2.97;86.50
21760;BME280;11041;50.854;20.580;2023-02-22T07:14:27;98799.47;;;2.87;85.55
21760;BME280;11041;50.854;20.580;2023-02-22T07:16:53;98818.53;;;3.02;85.55
21760;BME280;11041;50.854;20.580;2023-02-22T07:19:20;98828.03;;;3.05;85.53
21760;BME280;11041;50.854;20.580;2023-02-22T07:21:47;98806.06;;;3.01;84.86
21760;BME280;11041;50.854;20.580;2023-02-22T07:24:13;98819.66;;;3.11;84.73
21760;BME280;11041;50.854;20.580;2023-02-22T07:26:41;98810.69;;;3.06;84.73
21760;BME280;11041;50.854;20.580;2023-02-22T07:29:07;98830.00;;;3.19;84.24
21760;BME280;11041;50.854;20.580;2023-02-22T07:31:38;98825.94;;;3.22;84.53
21760;BME280;11041;50.854;20.580;2023-02-22T07:34:05;98828.41;;;3.24;83.94
21760;BME280;11041;50.854;20.580;2023-02-22T07:36:31;98816.44;;;3.25;84.10
21760;BME280;11041;50.854;20.580;2023-02-22T07:38:58;98821.88;;;3.25;83.28
21760;BME280;11041;50.854;20.580;2023-02-22T07:41:25;98795.00;;;3.18;83.76
21760;BME280;11041;50.854;20.580;2023-02-22T07:43:51;98821.94;;;3.30;83.66
21760;BME280;11041;50.854;20.580;2023-02-22T07:46:18;98822.19;;;3.33;83.29
21760;BME280;11041;50.854;20.580;2023-02-22T07:48:44;98832.53;;;3.41;83.77
21760;BME280;11041;50.854;20.580;2023-02-22T07:51:15;98825.22;;;3.37;83.13
21760;BME280;11041;50.854;20.580;2023-02-22T07:53:42;98814.31;;;3.32;82.90
21760;BME280;11041;50.854;20.580;2023-02-22T07:56:08;98817.59;;;3.39;82.36
21760;BME280;11041;50.854;20.580;2023-02-22T07:58:35;98829.81;;;3.41;81.65
21760;BME280;11041;50.854;20.580;2023-02-22T08:01:02;98807.22;;;3.20;81.98
21760;BME280;11041;50.854;20.580;2023-02-22T08:03:33;98823.88;;;3.39;82.72
21760;BME280;11041;50.854;20.580;2023-02-22T08:06:02;98824.38;;;3.41;82.57
21760;BME280;11041;50.854;20.580;2023-02-22T08:08:29;98811.88;;;3.35;82.02
21760;BME280;11041;50.854;20.580;2023-02-22T08:10:56;98827.16;;;3.52;82.38
21760;BME280;11041;50.854;20.580;2023-02-22T08:13:23;98826.09;;;3.63;82.31
21760;BME280;11041;50.854;20.580;2023-02-22T08:15:52;98835.06;;;3.63;81.40
21760;BME280;11041;50.854;20.580;2023-02-22T08:18:22;98813.81;;;3.45;81.06
21760;BME280;11041;50.854;20.580;2023-02-22T08:20:51;98825.53;;;3.56;81.42
21760;BME280;11041;50.854;20.580;2023-02-22T08:23:22;98819.56;;;3.54;80.21
21760;BME280;11041;50.854;20.580;2023-02-22T08:25:50;98816.59;;;3.66;80.69
21760;BME280;11041;50.854;20.580;2023-02-22T08:28:21;98832.94;;;3.86;78.57
21760;BME280;11041;50.854;20.580;2023-02-22T08:30:49;98827.81;;;4.00;77.29
21760;BME280;11041;50.854;20.580;2023-02-22T08:33:17;98831.88;;;4.18;77.75
21760;BME280;11041;50.854;20.580;2023-02-22T08:35:46;98831.06;;;4.22;76.09
21760;BME280;11041;50.854;20.580;2023-02-22T08:38:30;98847.69;;;4.31;75.22
21760;BME280;11041;50.854;20.580;2023-02-22T08:40:57;98826.47;;;4.33;72.64
21760;BME280;11041;50.854;20.580;2023-02-22T08:43:25;98836.50;;;4.22;72.80
21760;BME280;11041;50.854;20.580;2023-02-22T08:45:51;98830.25;;;4.12;73.86
21760;BME280;11041;50.854;20.580;2023-02-22T08:48:18;98836.78;;;4.11;74.80
21760;BME280;11041;50.854;20.580;2023-02-22T08:50:45;98828.91;;;4.09;74.35
21760;BME280;11041;50.854;20.580;2023-02-22T08:53:13;98862.34;;;4.20;75.08
21760;BME280;11041;50.854;20.580;2023-02-22T08:55:42;98828.06;;;4.09;74.41
21760;BME280;11041;50.854;20.580;2023-02-22T08:58:09;98846.88;;;4.36;74.26
21760;BME280;11041;50.854;20.580;2023-02-22T09:00:37;98861.81;;;4.59;72.84
21760;BME280;11041;50.854;20.580;2023-02-22T09:03:11;98853.09;;;4.72;70.79
21760;BME280;11041;50.854;20.580;2023-02-22T09:05:43;98825.06;;;4.66;71.09
21760;BME280;11041;50.854;20.580;2023-02-22T09:08:11;98850.06;;;4.94;70.48
21760;BME280;11041;50.854;20.580;2023-02-22T09:10:38;98831.88;;;4.69;66.54
21760;BME280;11041;50.854;20.580;2023-02-22T09:13:05;98868.34;;;4.73;66.98
21760;BME280;11041;50.854;20.580;2023-02-22T09:15:33;98865.63;;;4.68;67.30
21760;BME280;11041;50.854;20.580;2023-02-22T09:18:09;98839.25;;;4.48;66.67
21760;BME280;11041;50.854;20.580;2023-02-22T09:20:36;98831.34;;;4.52;68.20
21760;BME280;11041;50.854;20.580;2023-02-22T09:23:05;98858.53;;;4.77;67.02
21760;BME280;11041;50.854;20.580;2023-02-22T09:25:32;98841.41;;;4.77;67.05
21760;BME280;11041;50.854;20.580;2023-02-22T09:28:02;98863.94;;;4.98;68.88
21760;BME280;11041;50.854;20.580;2023-02-22T09:30:37;98857.69;;;4.97;69.87
21760;BME280;11041;50.854;20.580;2023-02-22T09:33:17;98871.56;;;5.06;68.18
21760;BME280;11041;50.854;20.580;2023-02-22T09:35:45;98854.41;;;4.95;66.63
21760;BME280;11041;50.854;20.580;2023-02-22T09:38:21;98842.47;;;4.76;64.89
21760;BME280;11041;50.854;20.580;2023-02-22T09:40:54;98869.38;;;4.98;62.98
21760;BME280;11041;50.854;20.580;2023-02-22T09:46:19;98860.13;;;4.99;63.76
21760;BME280;11041;50.854;20.580;2023-02-22T09:49:33;98859.31;;;5.03;63.27
21760;BME280;11041;50.854;20.580;2023-02-22T09:52:23;98862.28;;;5.02;62.49
21760;BME280;11041;50.854;20.580;2023-02-22T09:57:52;98845.41;;;5.05;62.28
21760;BME280;11041;50.854;20.580;2023-02-22T10:00:28;98835.59;;;5.04;61.06
21760;BME280;11041;50.854;20.580;2023-02-22T10:03:24;98832.91;;;4.99;58.89
21760;BME280;11041;50.854;20.580;2023-02-22T10:06:05;98814.66;;;4.94;60.08
21760;BME280;11041;50.854;20.580;2023-02-22T10:08:37;98851.66;;;5.16;60.05
21760;BME280;11041;50.854;20.580;2023-02-22T10:22:48;98837.81;;;4.91;59.04
21760;BME280;11041;50.854;20.580;2023-02-22T10:25:26;98841.09;;;4.94;58.78
21760;BME280;11041;50.854;20.580;2023-02-22T10:28:42;98841.91;;;4.89;60.82
21760;BME280;11041;50.854;20.580;2023-02-22T10:30:57;98832.66;;;4.80;60.86
21760;BME280;11041;50.854;20.580;2023-02-22T10:33:38;98835.66;;;4.73;62.39
21760;BME280;11041;50.854;20.580;2023-02-22T10:36:19;98828.06;;;4.65;60.80
21760;BME280;11041;50.854;20.580;2023-02-22T10:38:58;98840.28;;;4.78;59.36
21760;BME280;11041;50.854;20.580;2023-02-22T10:41:33;98831.84;;;4.84;58.84
21760;BME280;11041;50.854;20.580;2023-02-22T10:44:02;98845.41;;;5.00;59.94
21760;BME280;11041;50.854;20.580;2023-02-22T10:46:31;98831.25;;;5.08;60.99
21760;BME280;11041;50.854;20.580;2023-02-22T10:49:05;98832.06;;;5.08;60.66
21760;BME280;11041;50.854;20.580;2023-02-22T10:51:34;98842.91;;;5.19;61.01
21760;BME280;11041;50.854;20.580;2023-02-22T10:54:27;98801.31;;;4.93;59.21
21760;BME280;11041;50.854;20.580;2023-02-22T10:57:36;98830.41;;;5.18;59.23
21760;BME280;11041;50.854;20.580;2023-02-22T11:00:38;98820.31;;;5.18;60.24
21760;BME280;11041;50.854;20.580;2023-02-22T11:03:21;98815.94;;;5.22;60.49
21760;BME280;11041;50.854;20.580;2023-02-22T11:05:49;98840.97;;;5.34;61.85
21760;BME280;11041;50.854;20.580;2023-02-22T11:10:54;98846.97;;;5.21;62.34
21760;BME280;11041;50.854;20.580;2023-02-22T11:16:18;98841.81;;;5.15;62.71
21760;BME280;11041;50.854;20.580;2023-02-22T11:18:49;98845.41;;;5.10;63.33
21760;BME280;11041;50.854;20.580;2023-02-22T11:21:21;98849.75;;;5.11;63.28
21760;BME280;11041;50.854;20.580;2023-02-22T11:23:49;98837.22;;;5.05;63.18
21760;BME280;11041;50.854;20.580;2023-02-22T11:26:26;98844.31;;;5.11;63.10
21760;BME280;11041;50.854;20.580;2023-02-22T11:28:54;98836.13;;;5.11;62.88
21760;BME280;11041;50.854;20.580;2023-02-22T11:31:27;98838.56;;;5.18;61.19
21760;BME280;11041;50.854;20.580;2023-02-22T11:34:00;98842.66;;;5.15;60.85
21760;BME280;11041;50.854;20.580;2023-02-22T11:36:41;98842.38;;;5.17;60.03
21760;BME280;11041;50.854;20.580;2023-02-22T11:39:30;98850.81;;;5.20;59.21
21760;BME280;11041;50.854;20.580;2023-02-22T11:42:31;98831.44;;;5.22;59.60
21760;BME280;11041;50.854;20.580;2023-02-22T11:45:15;98851.34;;;5.27;59.40
21760;BME280;11041;50.854;20.580;2023-02-22T11:47:56;98842.63;;;5.25;57.51
21760;BME280;11041;50.854;20.580;2023-02-22T11:50:42;98843.72;;;5.24;57.89
21760;BME280;11041;50.854;20.580;2023-02-22T11:56:42;98830.28;;;5.48;58.30
21760;BME280;11041;50.854;20.580;2023-02-22T12:02:51;98842.97;;;5.68;58.72
21760;BME280;11041;50.854;20.580;2023-02-22T12:05:55;98831.41;;;5.87;57.89
21760;BME280;11041;50.854;20.580;2023-02-22T12:09:07;98846.69;;;5.88;56.50
21760;BME280;11041;50.854;20.580;2023-02-22T12:12:41;98828.75;;;5.76;58.48
21760;BME280;11041;50.854;20.580;2023-02-22T12:19:06;98841.63;;;5.66;58.20
21760;BME280;11041;50.854;20.580;2023-02-22T12:21:41;98830.25;;;5.53;58.81
21760;BME280;11041;50.854;20.580;2023-02-22T12:24:26;98830.28;;;5.48;58.90
21760;BME280;11041;50.854;20.580;2023-02-22T12:29:49;98842.47;;;5.61;58.25
21760;BME280;11041;50.854;20.580;2023-02-22T12:32:35;98839.75;;;5.61;58.80
21760;BME280;11041;50.854;20.580;2023-02-22T12:35:22;98836.78;;;5.52;58.56
21760;BME280;11041;50.854;20.580;2023-02-22T12:41:00;98836.75;;;5.58;59.72
21760;BME280;11041;50.854;20.580;2023-02-22T12:43:38;98843.03;;;5.58;59.88
21760;BME280;11041;50.854;20.580;2023-02-22T12:49:32;98840.66;;;5.36;60.24
21760;BME280;11041;50.854;20.580;2023-02-22T12:51:54;98840.94;;;5.40;60.64
21760;BME280;11041;50.854;20.580;2023-02-22T12:54:53;98823.78;;;5.39;60.48
21760;BME280;11041;50.854;20.580;2023-02-22T13:00:24;98824.59;;;5.40;60.83
21760;BME280;11041;50.854;20.580;2023-02-22T13:03:21;98839.00;;;5.40;61.18
21760;BME280;11041;50.854;20.580;2023-02-22T13:17:47;98829.72;;;5.51;60.11
21760;BME280;11041;50.854;20.580;2023-02-22T13:24:27;98826.13;;;5.61;58.54
21760;BME280;11041;50.854;20.580;2023-02-22T13:27:11;98829.91;;;5.65;59.62
21760;BME280;11041;50.854;20.580;2023-02-22T13:29:56;98822.81;;;5.64;60.13
21760;BME280;11041;50.854;20.580;2023-02-22T13:35:45;98829.00;;;5.80;59.76
21760;BME280;11041;50.854;20.580;2023-02-22T13:45:35;98836.19;;;5.66;59.47
21760;BME280;11041;50.854;20.580;2023-02-22T13:48:46;98831.03;;;5.59;59.15
21760;BME280;11041;50.854;20.580;2023-02-22T13:51:51;98835.22;;;5.41;59.62
21760;BME280;11041;50.854;20.580;2023-02-22T13:54:31;98840.97;;;5.34;60.59
21760;BME280;11041;50.854;20.580;2023-02-22T13:57:01;98839.06;;;5.30;60.46
21760;BME280;11041;50.854;20.580;2023-02-22T13:59:35;98844.78;;;5.28;60.82
21760;BME280;11041;50.854;20.580;2023-02-22T14:02:05;98837.47;;;5.19;60.04
21760;BME280;11041;50.854;20.580;2023-02-22T14:04:39;98841.81;;;5.15;60.10
21760;BME280;11041;50.854;20.580;2023-02-22T14:09:53;98834.22;;;5.11;60.38
21760;BME280;11041;50.854;20.580;2023-02-22T14:17:47;98852.47;;;5.11;60.23
21760;BME280;11041;50.854;20.580;2023-02-22T14:20:22;98842.13;;;5.08;60.08
21760;BME280;11041;50.854;20.580;2023-02-22T14:22:57;98853.56;;;5.05;60.53
21760;BME280;11041;50.854;20.580;2023-02-22T14:25:43;98834.81;;;4.98;61.17
21760;BME280;11041;50.854;20.580;2023-02-22T14:28:37;98856.88;;;4.97;60.36
21760;BME280;11041;50.854;20.580;2023-02-22T14:31:15;98856.88;;;4.91;60.64
21760;BME280;11041;50.854;20.580;2023-02-22T14:33:54;98860.69;;;4.96;61.11
21760;BME280;11041;50.854;20.580;2023-02-22T14:36:34;98847.34;;;4.89;60.38
21760;BME280;11041;50.854;20.580;2023-02-22T14:39:46;98859.59;;;4.97;60.75
21760;BME280;11041;50.854;20.580;2023-02-22T14:48:15;98861.50;;;4.91;59.67
21760;BME280;11041;50.854;20.580;2023-02-22T14:50:54;98854.69;;;4.83;59.74
21760;BME280;11041;50.854;20.580;2023-02-22T14:53:48;98859.09;;;4.79;59.93
21760;BME280;11041;50.854;20.580;2023-02-22T14:59:23;98851.97;;;4.83;60.00
21760;BME280;11041;50.854;20.580;2023-02-22T15:02:21;98856.88;;;4.91;60.19
21760;BME280;11041;50.854;20.580;2023-02-22T15:04:53;98845.72;;;4.93;60.26
21760;BME280;11041;50.854;20.580;2023-02-22T15:07:24;98854.41;;;4.95;59.53
21760;BME280;11041;50.854;20.580;2023-02-22T15:10:28;98850.31;;;4.93;59.06
21760;BME280;11041;50.854;20.580;2023-02-22T15:13:04;98860.97;;;4.89;60.23
21760;BME280;11041;50.854;20.580;2023-02-22T15:15:41;98849.53;;;4.82;60.04
21760;BME280;11041;50.854;20.580;2023-02-22T15:18:27;98851.44;;;4.76;60.05
21760;BME280;11041;50.854;20.580;2023-02-22T15:23:51;98860.97;;;4.68;61.20
21760;BME280;11041;50.854;20.580;2023-02-22T15:26:36;98832.72;;;4.44;61.77
21760;BME280;11041;50.854;20.580;2023-02-22T15:29:17;98855.28;;;4.44;61.81
21760;BME280;11041;50.854;20.580;2023-02-22T15:31:47;98851.75;;;4.34;62.44